Time;durP1;ratioP1;P1;durP2;ratioP2;P2;SDS_P1;SDS_P2;PMS_P1;PMS_P2;Temp;Humidity;BMP_temperature;BMP_pressure;BME280_temperature;BME280_humidity;BME280_pressure;Samples;Min_cycle;Max_cycle;Signal;HPM_P1;HPM_P2
2022/12/05 00:00:59;;;;;;;6.05;3.13;;;;;;;;;;5018620;28;20034;-72
2022/12/05 00:03:25;;;;;;;0.17;0.17;;;;;;;;;;5022279;28;20025;-72
2022/12/05 00:05:51;;;;;;;1.27;1.27;;;;;;;;;;5031007;28;20029;-80
2022/12/05 00:08:16;;;;;;;0.50;0.50;;;;;;;;;;5030547;28;20018;-70
2022/12/05 00:10:42;;;;;;;0.10;0.10;;;;;;;;;;5030337;28;20108;-73
2022/12/05 00:13:07;;;;;;;0.13;0.13;;;;;;;;;;5030268;28;20041;-72
2022/12/05 00:15:37;;;;;;;0.10;0.10;;;;;;;;;;5030892;28;20021;-73
2022/12/05 00:18:02;;;;;;;;;;;;;;;;;;5035054;28;20392;-70
2022/12/05 00:20:28;;;;;;;0.17;0.17;;;;;;;;;;5034886;28;19915;-71
2022/12/05 00:22:53;;;;;;;0.10;0.10;;;;;;;;;;5033176;28;20279;-70
2022/12/05 00:25:18;;;;;;;0.68;0.68;;;;;;;;;;5042018;28;20020;-69
2022/12/05 00:27:44;;;;;;;0.10;0.10;;;;;;;;;;5035925;28;20041;-70
2022/12/05 00:30:09;;;;;;;0.10;0.10;;;;;;;;;;5034331;28;20021;-71
2022/12/05 00:32:35;;;;;;;0.10;0.10;;;;;;;;;;5033290;28;20037;-71
2022/12/05 00:35:00;;;;;;;1.38;1.27;;;;;;;;;;5033225;28;20044;-70
2022/12/05 00:37:26;;;;;;;1.10;1.10;;;;;;;;;;5033813;28;20044;-70
2022/12/05 00:39:51;;;;;;;3.85;3.58;;;;;;;;;;5034100;28;20069;-71
2022/12/05 00:42:16;;;;;;;1.65;1.55;;;;;;;;;;5033401;28;20109;-70
2022/12/05 00:44:42;;;;;;;0.40;0.40;;;;;;;;;;5033990;28;20383;-73
2022/12/05 00:47:07;;;;;;;0.28;0.28;;;;;;;;;;5034173;28;20045;-73
2022/12/05 00:49:33;;;;;;;0.10;0.10;;;;;;;;;;5033366;28;20105;-74
2022/12/05 00:51:58;;;;;;;0.15;0.15;;;;;;;;;;5033879;28;20400;-72
2022/12/05 00:54:23;;;;;;;0.30;0.30;;;;;;;;;;5034000;28;20017;-72
2022/12/05 00:56:51;;;;;;;0.65;0.65;;;;;;;;;;5033187;28;20025;-71
2022/12/05 00:59:18;;;;;;;0.20;0.20;;;;;;;;;;5033730;28;20480;-70
2022/12/05 01:01:44;;;;;;;0.30;0.30;;;;;;;;;;5033571;28;20116;-71
2022/12/05 01:04:14;;;;;;;0.10;0.10;;;;;;;;;;5034150;28;20419;-71
2022/12/05 01:06:41;;;;;;;0.13;0.13;;;;;;;;;;5033802;28;20120;-71
2022/12/05 01:09:07;;;;;;;0.10;0.10;;;;;;;;;;5033734;28;20077;-70
2022/12/05 01:11:32;;;;;;;0.20;0.20;;;;;;;;;;5032917;28;20076;-72
2022/12/05 01:13:58;;;;;;;0.10;0.10;;;;;;;;;;5033293;28;20105;-72
2022/12/05 01:16:28;;;;;;;0.10;0.10;;;;;;;;;;5033326;28;20377;-72
2022/12/05 01:18:54;;;;;;;1.13;1.13;;;;;;;;;;5033406;28;20543;-73
2022/12/05 01:21:20;;;;;;;0.10;0.10;;;;;;;;;;5033593;28;20395;-72
2022/12/05 01:23:45;;;;;;;0.10;0.10;;;;;;;;;;5033484;28;20029;-72
2022/12/05 01:26:11;;;;;;;0.30;0.30;;;;;;;;;;5033481;28;20104;-72
2022/12/05 01:28:37;;;;;;;1.85;1.75;;;;;;;;;;5032868;28;20032;-72
2022/12/05 01:31:05;;;;;;;0.13;0.13;;;;;;;;;;5033255;28;20030;-72
2022/12/05 01:33:30;;;;;;;0.10;0.10;;;;;;;;;;5032256;28;20121;-72
2022/12/05 01:35:56;;;;;;;0.10;0.10;;;;;;;;;;5033282;28;20112;-73
2022/12/05 01:38:21;;;;;;;6.72;6.32;;;;;;;;;;5033098;28;20050;-73
2022/12/05 01:40:46;;;;;;;0.10;0.10;;;;;;;;;;5032911;28;20421;-72
2022/12/05 01:43:16;;;;;;;0.10;0.10;;;;;;;;;;5033272;28;20048;-72
2022/12/05 01:45:43;;;;;;;2.53;2.38;;;;;;;;;;5033172;28;20057;-72
2022/12/05 01:48:14;;;;;;;1.40;1.40;;;;;;;;;;5032114;28;20040;-72
2022/12/05 01:50:40;;;;;;;0.20;0.20;;;;;;;;;;5033388;28;20381;-72
2022/12/05 01:53:05;;;;;;;0.73;0.73;;;;;;;;;;5033191;28;20036;-72
2022/12/05 01:55:33;;;;;;;0.20;0.20;;;;;;;;;;5031261;28;20096;-71
2022/12/05 01:57:59;;;;;;;1.35;1.30;;;;;;;;;;5032916;28;20380;-72
2022/12/05 02:00:25;;;;;;;0.10;0.10;;;;;;;;;;5032949;28;20032;-71
2022/12/05 02:02:56;;;;;;;0.17;0.17;;;;;;;;;;5032873;28;20033;-71
2022/12/05 02:05:21;;;;;;;0.15;0.15;;;;;;;;;;5033471;28;20056;-71
2022/12/05 02:07:47;;;;;;;0.98;0.98;;;;;;;;;;5032982;28;20111;-71
2022/12/05 02:10:14;;;;;;;0.10;0.10;;;;;;;;;;5033055;28;20041;-70
2022/12/05 02:12:39;;;;;;;0.65;0.65;;;;;;;;;;5013397;28;20030;-72
2022/12/05 02:15:12;;;;;;;0.10;0.10;;;;;;;;;;5013175;28;20056;-71
2022/12/05 02:17:58;;;;;;;0.20;0.20;;;;;;;;;;5013146;28;20030;-71
2022/12/05 02:20:35;;;;;;;0.30;0.30;;;;;;;;;;4995459;28;20441;-70
2022/12/05 02:23:28;;;;;;;0.10;0.10;;;;;;;;;;5013009;28;20595;-71
2022/12/05 02:25:54;;;;;;;0.20;0.20;;;;;;;;;;5015942;28;20041;-72
2022/12/05 02:28:28;;;;;;;0.20;0.20;;;;;;;;;;5026316;28;20048;-72
2022/12/05 02:31:00;;;;;;;0.10;0.10;;;;;;;;;;5035308;28;20029;-72
2022/12/05 02:33:46;;;;;;;0.13;0.13;;;;;;;;;;5035543;28;20115;-72
2022/12/05 02:36:14;;;;;;;0.30;0.30;;;;;;;;;;5034673;28;20033;-72
2022/12/05 02:38:42;;;;;;;0.20;0.20;;;;;;;;;;5036434;28;20049;-73
2022/12/05 02:41:26;;;;;;;0.50;0.50;;;;;;;;;;5035750;28;20139;-73
2022/12/05 02:43:59;;;;;;;2.50;2.38;;;;;;;;;;5036271;28;20400;-73
2022/12/05 02:46:26;;;;;;;0.15;0.15;;;;;;;;;;5036204;28;20029;-72
2022/12/05 02:48:54;;;;;;;0.20;0.20;;;;;;;;;;5036194;28;20037;-70
2022/12/05 02:51:22;;;;;;;0.55;0.55;;;;;;;;;;5036454;28;20373;-70
2022/12/05 02:53:49;;;;;;;0.20;0.20;;;;;;;;;;5038026;28;20547;-71
2022/12/05 02:56:15;;;;;;;0.20;0.20;;;;;;;;;;5038265;28;20029;-70
2022/12/05 02:58:47;;;;;;;0.30;0.30;;;;;;;;;;5036478;28;20564;-71
2022/12/05 03:01:12;;;;;;;0.10;0.10;;;;;;;;;;5018756;28;20025;-71
2022/12/05 03:03:38;;;;;;;0.10;0.10;;;;;;;;;;5036092;28;20447;-70
2022/12/05 03:06:03;;;;;;;0.20;0.20;;;;;;;;;;5035867;28;20025;-70
2022/12/05 03:08:33;;;;;;;0.10;0.10;;;;;;;;;;5035900;28;20061;-70
2022/12/05 03:11:00;;;;;;;0.25;0.25;;;;;;;;;;5035141;28;20028;-71
2022/12/05 03:13:30;;;;;;;0.20;0.20;;;;;;;;;;5035581;28;20087;-70
2022/12/05 03:15:59;;;;;;;2.55;2.40;;;;;;;;;;5036010;28;20022;-70
2022/12/05 03:18:33;;;;;;;0.80;0.80;;;;;;;;;;5035781;28;20079;-72
2022/12/05 03:21:01;;;;;;;0.43;0.43;;;;;;;;;;5035618;28;20033;-72
2022/12/05 03:23:35;;;;;;;0.10;0.10;;;;;;;;;;5035659;28;20095;-72
2022/12/05 03:26:13;;;;;;;0.93;0.93;;;;;;;;;;5034628;28;20024;-72
2022/12/05 03:28:52;;;;;;;0.17;0.17;;;;;;;;;;5034377;28;20037;-72
2022/12/05 03:31:19;;;;;;;0.10;0.10;;;;;;;;;;5035414;28;20037;-72
2022/12/05 03:33:48;;;;;;;0.20;0.20;;;;;;;;;;5035250;28;20033;-71
2022/12/05 03:36:17;;;;;;;0.10;0.10;;;;;;;;;;5035106;28;20025;-71
2022/12/05 03:38:56;;;;;;;0.30;0.30;;;;;;;;;;5035000;28;20052;-72
2022/12/05 03:41:29;;;;;;;0.20;0.20;;;;;;;;;;5034568;28;20033;-71
2022/12/05 03:43:54;;;;;;;0.25;0.25;;;;;;;;;;5035323;28;20451;-71
2022/12/05 03:46:27;;;;;;;0.20;0.20;;;;;;;;;;5033975;28;20100;-71
2022/12/05 03:48:59;;;;;;;0.20;0.20;;;;;;;;;;5034930;28;20029;-71
2022/12/05 03:51:30;;;;;;;0.10;0.10;;;;;;;;;;5033957;28;20431;-71
2022/12/05 03:54:02;;;;;;;0.30;0.30;;;;;;;;;;5035039;28;20366;-71
2022/12/05 03:56:34;;;;;;;0.20;0.20;;;;;;;;;;5034258;28;20032;-71
2022/12/05 03:59:18;;;;;;;0.82;0.80;;;;;;;;;;5034854;28;20030;-71
2022/12/05 04:01:44;;;;;;;2.67;1.83;;;;;;;;;;5033812;28;20068;-72
2022/12/05 04:04:13;;;;;;;0.28;0.28;;;;;;;;;;5013136;28;20026;-76
2022/12/05 04:06:39;;;;;;;0.32;0.32;;;;;;;;;;5011056;28;20014;-73
2022/12/05 04:09:10;;;;;;;0.20;0.20;;;;;;;;;;5011293;28;20053;-73
2022/12/05 04:11:38;;;;;;;0.10;0.10;;;;;;;;;;5021365;28;20108;-73
2022/12/05 04:14:07;;;;;;;11.60;9.60;;;;;;;;;;5030840;28;20025;-74
2022/12/05 04:22:28;;;;;;;0.10;0.10;;;;;;;;;;5030453;28;20049;-74
2022/12/05 04:27:42;;;;;;;0.17;0.17;;;;;;;;;;5030507;28;20037;-78
2022/12/05 04:30:07;;;;;;;0.10;0.10;;;;;;;;;;5030535;28;20014;-73
2022/12/05 04:32:43;;;;;;;0.20;0.20;;;;;;;;;;5029256;28;20091;-72
2022/12/05 04:35:13;;;;;;;0.20;0.20;;;;;;;;;;5029624;28;20029;-72
2022/12/05 04:37:41;;;;;;;0.10;0.10;;;;;;;;;;5029891;28;20057;-75
2022/12/05 04:40:11;;;;;;;0.17;0.17;;;;;;;;;;5029793;28;20530;-72
2022/12/05 04:42:36;;;;;;;;;;;;;;;;;;5029771;28;20053;-72
2022/12/05 04:45:03;;;;;;;0.10;0.10;;;;;;;;;;5030742;28;20391;-72
2022/12/05 04:47:31;;;;;;;0.20;0.20;;;;;;;;;;5029649;28;20061;-71
2022/12/05 04:49:57;;;;;;;0.10;0.10;;;;;;;;;;5030524;28;20836;-69
2022/12/05 04:52:23;;;;;;;0.10;0.10;;;;;;;;;;5029723;28;20029;-71
2022/12/05 04:54:56;;;;;;;0.10;0.10;;;;;;;;;;5029865;28;20117;-71
2022/12/05 04:57:25;;;;;;;0.10;0.10;;;;;;;;;;5028183;28;20075;-71
2022/12/05 04:59:50;;;;;;;0.13;0.13;;;;;;;;;;5030361;28;20109;-72
2022/12/05 05:02:18;;;;;;;0.43;0.43;;;;;;;;;;5028970;28;20129;-71
2022/12/05 05:04:46;;;;;;;1.83;1.75;;;;;;;;;;5030024;28;20112;-79
2022/12/05 05:07:11;;;;;;;0.10;0.10;;;;;;;;;;5028936;28;20387;-71
2022/12/05 05:09:38;;;;;;;0.32;0.32;;;;;;;;;;5029722;28;20108;-73
2022/12/05 05:12:03;;;;;;;0.10;0.10;;;;;;;;;;5029837;28;20099;-77
2022/12/05 05:14:29;;;;;;;0.13;0.13;;;;;;;;;;5028873;28;20464;-71
2022/12/05 05:16:54;;;;;;;0.20;0.20;;;;;;;;;;5029861;28;20030;-73
2022/12/05 05:19:20;;;;;;;0.28;0.28;;;;;;;;;;5029471;28;20053;-71
2022/12/05 05:21:47;;;;;;;0.13;0.13;;;;;;;;;;5030938;28;20071;-70
2022/12/05 05:24:14;;;;;;;0.10;0.10;;;;;;;;;;5029096;28;20116;-71
2022/12/05 05:26:41;;;;;;;0.10;0.10;;;;;;;;;;5016756;28;20030;-72
2022/12/05 05:29:08;;;;;;;0.50;0.50;;;;;;;;;;5009903;28;20087;-72
2022/12/05 05:31:34;;;;;;;0.10;0.10;;;;;;;;;;5026436;28;20018;-71
2022/12/05 05:33:59;;;;;;;0.50;0.50;;;;;;;;;;5020088;28;20026;-71
2022/12/05 05:36:25;;;;;;;0.20;0.20;;;;;;;;;;5029188;28;20025;-73
2022/12/05 05:38:52;;;;;;;0.17;0.17;;;;;;;;;;5017752;28;20054;-72
2022/12/05 05:41:19;;;;;;;0.38;0.38;;;;;;;;;;5015737;28;20076;-71
2022/12/05 05:43:45;;;;;;;0.30;0.30;;;;;;;;;;5023612;28;20029;-73
2022/12/05 05:46:10;;;;;;;0.10;0.10;;;;;;;;;;5020532;28;20024;-72
2022/12/05 05:48:36;;;;;;;0.17;0.17;;;;;;;;;;5024744;28;20034;-72
2022/12/05 05:51:02;;;;;;;0.15;0.15;;;;;;;;;;5026019;28;20096;-72
2022/12/05 05:53:27;;;;;;;0.20;0.20;;;;;;;;;;5025581;28;20041;-72
2022/12/05 05:55:53;;;;;;;0.47;0.47;;;;;;;;;;5011343;28;20022;-72
2022/12/05 05:58:18;;;;;;;0.10;0.10;;;;;;;;;;5021877;28;20546;-80
2022/12/05 06:00:43;;;;;;;0.50;0.50;;;;;;;;;;5021928;28;20022;-70
2022/12/05 06:03:09;;;;;;;0.20;0.20;;;;;;;;;;5034350;28;20036;-71
2022/12/05 06:05:34;;;;;;;0.25;0.25;;;;;;;;;;5028535;28;20068;-71
2022/12/05 06:08:00;;;;;;;0.17;0.17;;;;;;;;;;5028835;28;20135;-72
2022/12/05 06:10:25;;;;;;;0.10;0.10;;;;;;;;;;5019722;28;20029;-72
2022/12/05 06:12:51;;;;;;;0.15;0.15;;;;;;;;;;5032140;28;20048;-77
2022/12/05 06:15:16;;;;;;;0.10;0.10;;;;;;;;;;5028331;28;20038;-71
2022/12/05 06:17:41;;;;;;;0.17;0.17;;;;;;;;;;5023491;28;20033;-71
2022/12/05 06:20:07;;;;;;;0.10;0.10;;;;;;;;;;5021109;28;20100;-71
2022/12/05 06:22:32;;;;;;;0.13;0.13;;;;;;;;;;5023098;28;20468;-75
2022/12/05 06:24:58;;;;;;;0.17;0.17;;;;;;;;;;5024498;28;20027;-78
2022/12/05 06:27:23;;;;;;;0.10;0.10;;;;;;;;;;5022828;28;20026;-70
2022/12/05 06:29:49;;;;;;;0.20;0.20;;;;;;;;;;5022931;28;20028;-72
2022/12/05 06:32:15;;;;;;;0.10;0.10;;;;;;;;;;5026760;28;20077;-71
2022/12/05 06:34:40;;;;;;;0.20;0.20;;;;;;;;;;5026747;28;20056;-70
2022/12/05 06:37:06;;;;;;;0.10;0.10;;;;;;;;;;5023104;28;20022;-71
2022/12/05 06:39:31;;;;;;;0.25;0.25;;;;;;;;;;5027113;28;20560;-71
2022/12/05 06:41:56;;;;;;;0.35;0.35;;;;;;;;;;5035564;28;20044;-71
2022/12/05 06:44:25;;;;;;;0.10;0.10;;;;;;;;;;5031032;28;20049;-72
2022/12/05 06:46:51;;;;;;;0.10;0.10;;;;;;;;;;5025045;28;20037;-72
2022/12/05 06:49:17;;;;;;;0.40;0.40;;;;;;;;;;5031353;28;20088;-78
2022/12/05 06:51:43;;;;;;;0.95;0.95;;;;;;;;;;5022242;28;20117;-71
2022/12/05 06:54:10;;;;;;;0.30;0.30;;;;;;;;;;5022120;28;20017;-71
2022/12/05 06:56:35;;;;;;;0.35;0.35;;;;;;;;;;5028617;28;20120;-76
2022/12/05 06:59:01;;;;;;;0.30;0.30;;;;;;;;;;5026460;28;20112;-70
2022/12/05 07:01:39;;;;;;;0.40;0.40;;;;;;;;;;5029383;28;20068;-71
2022/12/05 07:04:15;;;;;;;0.20;0.20;;;;;;;;;;5030380;28;20079;-71
2022/12/05 07:06:42;;;;;;;0.13;0.13;;;;;;;;;;5029812;28;20038;-71
2022/12/05 07:09:07;;;;;;;0.40;0.40;;;;;;;;;;5031119;28;20110;-70
2022/12/05 07:11:33;;;;;;;0.20;0.20;;;;;;;;;;5044112;28;20113;-73
2022/12/05 07:13:59;;;;;;;0.70;0.70;;;;;;;;;;5015741;28;20078;-71
2022/12/05 07:16:24;;;;;;;0.20;0.20;;;;;;;;;;5026305;28;20022;-74
2022/12/05 07:18:50;;;;;;;0.10;0.10;;;;;;;;;;5018379;28;20424;-85
2022/12/05 07:21:15;;;;;;;0.20;0.20;;;;;;;;;;5015501;28;20029;-76
2022/12/05 07:23:42;;;;;;;0.17;0.17;;;;;;;;;;5017526;28;20041;-87
2022/12/05 07:26:08;;;;;;;0.50;0.50;;;;;;;;;;5019635;28;20488;-71
2022/12/05 07:28:34;;;;;;;0.43;0.43;;;;;;;;;;5019498;28;20025;-71
2022/12/05 07:31:00;;;;;;;0.10;0.10;;;;;;;;;;5026940;28;20021;-71
2022/12/05 07:33:26;;;;;;;0.10;0.10;;;;;;;;;;5022749;28;20032;-74
2022/12/05 07:35:51;;;;;;;0.30;0.30;;;;;;;;;;5019079;28;20436;-71
2022/12/05 07:38:17;;;;;;;0.10;0.10;;;;;;;;;;5025913;28;20484;-74
2022/12/05 07:40:42;;;;;;;0.20;0.20;;;;;;;;;;5029550;28;20052;-71
2022/12/05 07:43:08;;;;;;;0.32;0.32;;;;;;;;;;5029917;28;20018;-72
2022/12/05 07:45:34;;;;;;;0.15;0.15;;;;;;;;;;5028130;28;20111;-72
2022/12/05 07:48:00;;;;;;;0.10;0.10;;;;;;;;;;5018272;28;20037;-72
2022/12/05 07:50:25;;;;;;;0.10;0.10;;;;;;;;;;5009966;28;20057;-70
2022/12/05 07:52:51;;;;;;;0.32;0.32;;;;;;;;;;5009613;28;20535;-72
2022/12/05 07:55:16;;;;;;;0.10;0.10;;;;;;;;;;5020260;28;20018;-76
2022/12/05 07:57:42;;;;;;;0.10;0.10;;;;;;;;;;5009655;28;20041;-72
2022/12/05 08:00:07;;;;;;;0.10;0.10;;;;;;;;;;5010746;28;20385;-80
2022/12/05 08:02:37;;;;;;;0.10;0.10;;;;;;;;;;5009297;28;20557;-72
2022/12/05 08:05:03;;;;;;;0.30;0.30;;;;;;;;;;5008181;28;20108;-73
2022/12/05 08:07:29;;;;;;;13.02;9.35;;;;;;;;;;5010063;28;20033;-71
2022/12/05 08:09:54;;;;;;;0.10;0.10;;;;;;;;;;5008039;28;20022;-72
2022/12/05 08:12:20;;;;;;;0.10;0.10;;;;;;;;;;5026896;28;20045;-71
2022/12/05 08:14:45;;;;;;;0.10;0.10;;;;;;;;;;5028370;28;20026;-70
2022/12/05 08:17:10;;;;;;;12.02;5.00;;;;;;;;;;5029517;28;20029;-78
2022/12/05 08:19:36;;;;;;;0.30;0.30;;;;;;;;;;5029065;28;20034;-71
2022/12/05 08:22:01;;;;;;;0.10;0.10;;;;;;;;;;5014134;28;20045;-70
2022/12/05 08:24:27;;;;;;;20.98;5.78;;;;;;;;;;5009637;28;20034;-79
2022/12/05 08:26:52;;;;;;;0.60;0.60;;;;;;;;;;5008258;28;20062;-73
2022/12/05 08:29:20;;;;;;;0.10;0.10;;;;;;;;;;5025787;28;20096;-71
2022/12/05 08:31:47;;;;;;;0.52;0.52;;;;;;;;;;5032516;28;20052;-71
2022/12/05 08:34:13;;;;;;;0.47;0.47;;;;;;;;;;5028128;28;20120;-78
2022/12/05 08:36:39;;;;;;;0.20;0.20;;;;;;;;;;5026950;28;20040;-77
2022/12/05 08:39:05;;;;;;;0.63;0.63;;;;;;;;;;5028157;28;20049;-71
2022/12/05 08:41:31;;;;;;;0.10;0.10;;;;;;;;;;5019006;28;20041;-72
2022/12/05 08:43:57;;;;;;;0.20;0.20;;;;;;;;;;5019165;28;20038;-72
2022/12/05 08:46:23;;;;;;;0.20;0.20;;;;;;;;;;5022626;28;20021;-76
2022/12/05 08:48:48;;;;;;;0.10;0.10;;;;;;;;;;5028759;28;20029;-73
2022/12/05 08:51:14;;;;;;;0.20;0.20;;;;;;;;;;5019912;28;20857;-71
2022/12/05 08:53:39;;;;;;;0.20;0.20;;;;;;;;;;5008970;28;20443;-72
2022/12/05 08:56:06;;;;;;;0.10;0.10;;;;;;;;;;5009180;28;20308;-73
2022/12/05 08:58:32;;;;;;;0.10;0.10;;;;;;;;;;5008827;28;20049;-73
2022/12/05 09:01:08;;;;;;;0.75;0.75;;;;;;;;;;5024843;28;20083;-71
2022/12/05 09:03:34;;;;;;;0.20;0.20;;;;;;;;;;5019016;28;20022;-72
2022/12/05 09:06:07;;;;;;;0.10;0.10;;;;;;;;;;5027902;28;20400;-73
2022/12/05 09:08:32;;;;;;;0.17;0.17;;;;;;;;;;5013888;28;20034;-73
2022/12/05 09:10:58;;;;;;;0.10;0.10;;;;;;;;;;5018894;28;20036;-73
2022/12/05 09:13:25;;;;;;;0.10;0.10;;;;;;;;;;5007310;28;20022;-73
2022/12/05 09:15:51;;;;;;;0.47;0.47;;;;;;;;;;5023292;28;20491;-71
2022/12/05 09:18:17;;;;;;;0.10;0.10;;;;;;;;;;5026319;28;20033;-73
2022/12/05 09:20:42;;;;;;;0.10;0.10;;;;;;;;;;5024670;28;20102;-75
2022/12/05 09:23:08;;;;;;;0.20;0.20;;;;;;;;;;5028114;28;20033;-71
2022/12/05 09:25:34;;;;;;;0.20;0.20;;;;;;;;;;5022778;28;20034;-74
2022/12/05 09:27:59;;;;;;;1.38;0.60;;;;;;;;;;5026762;28;20053;-74
2022/12/05 09:30:25;;;;;;;0.30;0.30;;;;;;;;;;5028718;28;20036;-75
2022/12/05 09:32:50;;;;;;;0.20;0.20;;;;;;;;;;5022350;28;20034;-76
2022/12/05 09:35:16;;;;;;;0.15;0.15;;;;;;;;;;5006849;28;20481;-74
2022/12/05 09:37:41;;;;;;;0.20;0.20;;;;;;;;;;5007457;28;20093;-73
2022/12/05 09:40:14;;;;;;;0.20;0.20;;;;;;;;;;5005830;28;20062;-73
2022/12/05 09:42:48;;;;;;;1.10;0.57;;;;;;;;;;5022421;28;20093;-73
2022/12/05 09:45:32;;;;;;;0.20;0.20;;;;;;;;;;5027749;28;20029;-77
2022/12/05 09:47:57;;;;;;;4.20;1.30;;;;;;;;;;5029852;28;20080;-77
2022/12/05 09:50:23;;;;;;;0.10;0.10;;;;;;;;;;5031559;28;20032;-76
2022/12/05 09:53:01;;;;;;;0.20;0.20;;;;;;;;;;5003167;28;20064;-76
2022/12/05 09:55:42;;;;;;;0.20;0.20;;;;;;;;;;5006615;28;20088;-74
2022/12/05 09:58:21;;;;;;;0.20;0.20;;;;;;;;;;5010357;28;20036;-74
2022/12/05 10:00:50;;;;;;;0.30;0.30;;;;;;;;;;5027462;28;20040;-77
2022/12/05 10:03:18;;;;;;;0.20;0.20;;;;;;;;;;5026906;28;20034;-75
2022/12/05 10:06:02;;;;;;;0.30;0.30;;;;;;;;;;5027682;28;20568;-75
2022/12/05 10:08:43;;;;;;;0.20;0.20;;;;;;;;;;5027401;28;20431;-76
2022/12/05 10:11:13;;;;;;;0.30;0.30;;;;;;;;;;5027552;28;20022;-76
2022/12/05 10:13:38;;;;;;;;;;;;;;;;;;5025784;28;20049;-79
2022/12/05 10:16:06;;;;;;;0.60;0.60;;;;;;;;;;5027889;28;19909;-76
2022/12/05 10:18:47;;;;;;;0.20;0.20;;;;;;;;;;5027426;28;20292;-76
2022/12/05 10:21:22;;;;;;;1.50;0.50;;;;;;;;;;5027701;28;20083;-76
2022/12/05 10:23:52;;;;;;;0.17;0.17;;;;;;;;;;5026597;28;20098;-76
2022/12/05 10:26:18;;;;;;;0.28;0.28;;;;;;;;;;5026944;28;20159;-75
2022/12/05 10:28:51;;;;;;;0.20;0.20;;;;;;;;;;5027956;28;20034;-76
2022/12/05 10:31:18;;;;;;;0.20;0.20;;;;;;;;;;5027963;28;20289;-74
2022/12/05 10:33:46;;;;;;;0.65;0.65;;;;;;;;;;5027489;28;20032;-77
2022/12/05 10:36:13;;;;;;;0.22;0.22;;;;;;;;;;5025725;28;20183;-76
2022/12/05 10:38:39;;;;;;;0.22;0.22;;;;;;;;;;5026905;28;20160;-75
2022/12/05 10:41:10;;;;;;;0.30;0.30;;;;;;;;;;5027568;28;20029;-76
2022/12/05 10:43:37;;;;;;;0.30;0.30;;;;;;;;;;5027749;28;20030;-80
2022/12/05 10:46:04;;;;;;;0.68;0.68;;;;;;;;;;5029644;28;20044;-75
2022/12/05 10:48:30;;;;;;;0.30;0.30;;;;;;;;;;5030448;28;20459;-80
2022/12/05 10:50:56;;;;;;;0.20;0.20;;;;;;;;;;5030337;28;20478;-74
2022/12/05 10:53:27;;;;;;;0.20;0.20;;;;;;;;;;5030714;28;20025;-75
2022/12/05 10:55:53;;;;;;;0.30;0.30;;;;;;;;;;5030064;28;20021;-75
2022/12/05 10:58:23;;;;;;;0.20;0.20;;;;;;;;;;5028132;28;20068;-77
2022/12/05 11:00:54;;;;;;;0.20;0.20;;;;;;;;;;5032642;28;20036;-75
2022/12/05 11:03:25;;;;;;;0.40;0.40;;;;;;;;;;5036827;28;20420;-74
2022/12/05 11:05:52;;;;;;;0.10;0.10;;;;;;;;;;5014831;28;20381;-74
2022/12/05 11:08:29;;;;;;;0.20;0.20;;;;;;;;;;5024801;28;20045;-75
2022/12/05 11:11:02;;;;;;;0.75;0.57;;;;;;;;;;5009255;28;20116;-75
2022/12/05 11:13:28;;;;;;;0.20;0.20;;;;;;;;;;5010031;28;20029;-74
2022/12/05 11:15:53;;;;;;;0.47;0.40;;;;;;;;;;5018394;28;20230;-74
2022/12/05 11:18:30;;;;;;;0.50;0.50;;;;;;;;;;5027166;28;20041;-75
2022/12/05 11:21:03;;;;;;;2.05;1.50;;;;;;;;;;5010219;28;20381;-75
2022/12/05 11:23:29;;;;;;;14.70;1.85;;;;;;;;;;5015125;28;20052;-76
2022/12/05 11:25:56;;;;;;;0.38;0.38;;;;;;;;;;5032395;28;20469;-76
2022/12/05 11:28:23;;;;;;;3.80;0.90;;;;;;;;;;5034384;28;20030;-72
2022/12/05 11:30:57;;;;;;;1.27;0.43;;;;;;;;;;5048477;28;20032;-72
2022/12/05 11:33:24;;;;;;;2.00;1.48;;;;;;;;;;5050092;28;20033;-73
2022/12/05 11:35:50;;;;;;;0.20;0.20;;;;;;;;;;5036356;28;20014;-74
2022/12/05 11:38:17;;;;;;;0.57;0.57;;;;;;;;;;5028309;28;20485;-75
2022/12/05 11:40:43;;;;;;;0.52;0.52;;;;;;;;;;5024156;28;20472;-77
2022/12/05 11:43:18;;;;;;;0.20;0.20;;;;;;;;;;5031013;28;20030;-74
2022/12/05 11:45:46;;;;;;;5.13;1.30;;;;;;;;;;5032105;28;20168;-75
2022/12/05 11:48:15;;;;;;;0.20;0.20;;;;;;;;;;5030018;28;20033;-75
2022/12/05 11:50:59;;;;;;;0.20;0.20;;;;;;;;;;5028927;28;20535;-74
2022/12/05 11:53:28;;;;;;;0.20;0.20;;;;;;;;;;5029617;28;20037;-76
2022/12/05 11:55:56;;;;;;;0.20;0.20;;;;;;;;;;5029136;28;20030;-74
2022/12/05 11:58:24;;;;;;;;;;;;;;;;;;5028547;28;20069;-73
2022/12/05 12:01:09;;;;;;;4.82;4.53;;;;;;;;;;5029070;28;20090;-74
2022/12/05 12:03:59;;;;;;;4.57;0.70;;;;;;;;;;5018688;28;20485;-73
2022/12/05 12:06:30;;;;;;;0.20;0.20;;;;;;;;;;5007932;28;20108;-76
2022/12/05 12:09:04;;;;;;;0.47;0.47;;;;;;;;;;5026725;28;20407;-77
2022/12/05 12:11:56;;;;;;;2.60;0.52;;;;;;;;;;5014554;28;20030;-76
2022/12/05 12:14:28;;;;;;;1.77;0.75;;;;;;;;;;5033721;28;20049;-76
2022/12/05 12:16:57;;;;;;;6.03;0.75;;;;;;;;;;5036308;28;20061;-74
2022/12/05 12:19:33;;;;;;;1.33;0.97;;;;;;;;;;5044827;28;20757;-75
2022/12/05 12:22:17;;;;;;;1.05;0.70;;;;;;;;;;5031864;28;20472;-75
2022/12/05 12:25:01;;;;;;;0.43;0.43;;;;;;;;;;5023791;28;20032;-74
2022/12/05 12:27:39;;;;;;;0.52;0.38;;;;;;;;;;5020276;28;20025;-74
2022/12/05 12:30:23;;;;;;;0.85;0.85;;;;;;;;;;5021429;28;20022;-74
2022/12/05 12:32:49;;;;;;;0.28;0.28;;;;;;;;;;5018945;28;20485;-75
2022/12/05 12:35:20;;;;;;;2.55;2.40;;;;;;;;;;5019007;28;20022;-74
2022/12/05 12:37:56;;;;;;;1.50;0.85;;;;;;;;;;5013742;28;20075;-74
2022/12/05 12:40:22;;;;;;;41.25;7.88;;;;;;;;;;5016256;28;20080;-74
2022/12/05 12:42:50;;;;;;;0.30;0.30;;;;;;;;;;5025724;28;20045;-73
2022/12/05 12:45:34;;;;;;;0.30;0.30;;;;;;;;;;5025507;28;20063;-74
2022/12/05 12:48:02;;;;;;;2.53;2.10;;;;;;;;;;5016696;28;20030;-75
2022/12/05 12:50:32;;;;;;;0.30;0.30;;;;;;;;;;5007703;28;20049;-74
2022/12/05 12:53:27;;;;;;;2.65;2.30;;;;;;;;;;5006216;28;20117;-76
2022/12/05 12:55:53;;;;;;;0.30;0.30;;;;;;;;;;5005937;28;20085;-74
2022/12/05 12:58:21;;;;;;;0.22;0.22;;;;;;;;;;5023117;28;20114;-73
2022/12/05 13:01:10;;;;;;;0.70;0.40;;;;;;;;;;5020509;28;20324;-75
2022/12/05 13:03:54;;;;;;;2.03;0.50;;;;;;;;;;5010267;28;20076;-75
2022/12/05 13:06:27;;;;;;;0.40;0.40;;;;;;;;;;5027111;28;20036;-75
2022/12/05 13:08:56;;;;;;;0.30;0.30;;;;;;;;;;5023863;28;20132;-73
2022/12/05 13:11:22;;;;;;;0.20;0.20;;;;;;;;;;5027889;28;20017;-73
2022/12/05 13:13:50;;;;;;;0.38;0.38;;;;;;;;;;5019443;28;20056;-74
2022/12/05 13:16:22;;;;;;;0.22;0.22;;;;;;;;;;5021363;28;20477;-73
2022/12/05 13:18:47;;;;;;;19.83;6.68;;;;;;;;;;5027128;28;20370;-74
2022/12/05 13:21:13;;;;;;;0.20;0.20;;;;;;;;;;5026447;28;20041;-75
2022/12/05 13:23:50;;;;;;;2.05;0.30;;;;;;;;;;5021698;28;20029;-74
2022/12/05 13:26:16;;;;;;;0.38;0.38;;;;;;;;;;5024523;28;20024;-75
2022/12/05 13:28:50;;;;;;;0.28;0.28;;;;;;;;;;5018256;28;20034;-75
2022/12/05 13:31:18;;;;;;;0.20;0.20;;;;;;;;;;5020811;28;20029;-74
2022/12/05 13:33:44;;;;;;;0.40;0.40;;;;;;;;;;5008257;28;20456;-76
2022/12/05 13:44:35;;;;;;;0.20;0.20;;;;;;;;;;5008576;28;20046;-73
2022/12/05 13:47:01;;;;;;;6.60;1.30;;;;;;;;;;5007715;28;20022;-74
2022/12/05 13:49:47;;;;;;;0.30;0.30;;;;;;;;;;5024173;28;20036;-74
2022/12/05 13:52:16;;;;;;;1.27;0.43;;;;;;;;;;5046983;28;20033;-74
2022/12/05 13:54:44;;;;;;;0.63;0.40;;;;;;;;;;5048003;28;20041;-74
2022/12/05 13:57:29;;;;;;;0.25;0.25;;;;;;;;;;5043497;28;20049;-74
2022/12/05 13:59:59;;;;;;;0.43;0.43;;;;;;;;;;5011727;28;20034;-74
2022/12/05 14:02:40;;;;;;;75.47;10.25;;;;;;;;;;5008581;28;20496;-73
2022/12/05 14:05:13;;;;;;;0.20;0.20;;;;;;;;;;5022998;28;20061;-75
2022/12/05 14:07:40;;;;;;;0.30;0.30;;;;;;;;;;5025968;28;20117;-74
2022/12/05 14:10:06;;;;;;;0.50;0.50;;;;;;;;;;5027032;28;20045;-74
2022/12/05 14:12:46;;;;;;;0.20;0.20;;;;;;;;;;5026352;28;20049;-73
2022/12/05 14:15:30;;;;;;;16.25;0.52;;;;;;;;;;5023946;28;20036;-73
2022/12/05 14:18:15;;;;;;;0.22;0.22;;;;;;;;;;5019036;28;20080;-77
2022/12/05 14:20:58;;;;;;;0.63;0.63;;;;;;;;;;5027438;28;20340;-74
2022/12/05 14:23:33;;;;;;;0.30;0.30;;;;;;;;;;5025567;28;20029;-75
2022/12/05 14:26:14;;;;;;;5.80;0.35;;;;;;;;;;5029853;28;20033;-74
2022/12/05 14:28:46;;;;;;;10.43;0.50;;;;;;;;;;5030616;28;20461;-77
2022/12/05 14:31:15;;;;;;;7.97;0.93;;;;;;;;;;5031205;28;20075;-74
2022/12/05 14:33:40;;;;;;;3.25;0.93;;;;;;;;;;5031379;28;20029;-78
2022/12/05 14:36:07;;;;;;;0.30;0.30;;;;;;;;;;5029950;28;20033;-75
2022/12/05 14:38:33;;;;;;;0.20;0.20;;;;;;;;;;5030222;28;20065;-74
2022/12/05 14:41:16;;;;;;;0.95;0.43;;;;;;;;;;5030432;28;20123;-77
2022/12/05 14:43:41;;;;;;;0.40;0.40;;;;;;;;;;5030848;28;20124;-74
2022/12/05 14:46:14;;;;;;;0.30;0.30;;;;;;;;;;5029958;28;20171;-78
2022/12/05 14:48:43;;;;;;;0.30;0.30;;;;;;;;;;5013649;28;20389;-75
2022/12/05 14:51:27;;;;;;;0.22;0.22;;;;;;;;;;5010455;28;20501;-73
2022/12/05 14:53:53;;;;;;;0.20;0.20;;;;;;;;;;5010627;28;20036;-73
2022/12/05 14:56:24;;;;;;;7.63;1.10;;;;;;;;;;5012761;28;20463;-76
2022/12/05 14:58:54;;;;;;;0.20;0.20;;;;;;;;;;5028342;28;20378;-76
2022/12/05 15:01:26;;;;;;;0.38;0.22;;;;;;;;;;5027647;28;20041;-76
2022/12/05 15:03:54;;;;;;;0.55;0.30;;;;;;;;;;5010739;28;20033;-74
2022/12/05 15:06:21;;;;;;;0.40;0.40;;;;;;;;;;5010497;28;20033;-74
2022/12/05 15:08:49;;;;;;;0.20;0.20;;;;;;;;;;5010255;28;20044;-76
2022/12/05 15:11:28;;;;;;;0.22;0.22;;;;;;;;;;5009494;28;20619;-75